• Join FlightAware (Why Join?)
  • Login
  • US Flag 
12:37PM EST


 

Airport Tracker/Info


-or-


 

Live Flight TrackerFlight Track Log ✈ SWA3228 ✈ 05-Apr-2014 ✈ KLAS - KGEG

Flight Track Log - Related Links

Times and Time Zones

All times are in EDT time to prevent confusion due to time zone crossing. See the SWA3228 flight status page for this flight to view local times or setup timezone preferences in your user account.

Time Position Orientation Groundspeed Altitude Reporting Facility
EDT Latitude Longitude Course Direction KTS MPH feet Rate Location/Type
05:20PM 36.1289 -115.1136 57° Northeast 208 239 4,600  Level Los Angeles Center
05:21PM 36.1356 -115.0544 82° East 238 274 6,800 3,262 Climbing Los Angeles Center
05:22PM 36.1464 -114.9572 82° East 280 322 10,200 3,532 Climbing Los Angeles Center
05:23PM 36.1547 -114.8517 84° East 296 341 14,100 3,484 Climbing Los Angeles Center
05:24PM 36.1764 -114.7522 75° East 299 344 17,400 2,371 Climbing Los Angeles Center
05:25PM 36.1878 -114.6428 83° East 320 368 19,000 1,597 Climbing Los Angeles Center
05:26PM 36.2003 -114.5311 82° East 327 376 20,700 1,645 Climbing Los Angeles Center
05:27PM 36.2356 -114.4147 69° East 361 415 22,400 2,177 Climbing Los Angeles Center
05:28PM 36.2797 -114.2636 70° East 387 445 25,200 2,419 Climbing Los Angeles Center
05:29PM 36.3167 -114.1300 71° East 404 465 27,400 1,355 Climbing Los Angeles Center
05:30PM 36.4067 -114.0475 36° Northeast 414 476 28,000 1,645 Climbing Los Angeles Center
05:31PM 36.5286 -113.9867 22° Northeast 423 487 30,800 1,935 Climbing Los Angeles Center
05:32PM 36.6347 -113.9308 23° Northeast 416 479 32,000 1,210 Climbing Los Angeles Center
05:33PM 36.7450 -113.8728 23° Northeast 426 490 33,300 1,403 Climbing Los Angeles Center
05:34PM 36.8575 -113.8150 22° Northeast 433 498 34,900 1,258 Climbing Los Angeles Center
05:35PM 36.9697 -113.7572 22° Northeast 434 499 35,900 1,104 Climbing Los Angeles Center
05:36PM 37.0828 -113.6961 23° Northeast 439 505 37,200 1,104 Climbing Los Angeles Center
05:37PM 37.1958 -113.6369 23° Northeast 439 505 38,200 871 Climbing Los Angeles Center
05:38PM 37.3317 -113.5658 23° Northeast 439 505 39,000 432 Climbing Los Angeles Center
05:39PM 37.4225 -113.5183 23° Northeast 440 506 39,000  Level Salt Lake Center
05:40PM 37.5375 -113.4569 23° Northeast 441 507 39,000  Level Salt Lake Center
05:41PM 37.6578 -113.3922 23° Northeast 441 507 39,000  Level Salt Lake Center
05:42PM 37.7686 -113.4047 355° North 445 512 39,000  Level Salt Lake Center
05:43PM 37.8808 -113.4553 340° North 430 495 39,000  Level Salt Lake Center
05:44PM 37.9939 -113.5050 341° North 430 495 39,000  Level Salt Lake Center
05:45PM 38.1061 -113.5550 341° North 429 494 39,000 -195 Level Salt Lake Center
05:46PM 38.2178 -113.6031 341° North 427 491 38,600 -488 Descending Salt Lake Center
05:48PM 38.3531 -113.6628 341° North 427 491 38,000 -293 Descending Salt Lake Center
05:49PM 38.4633 -113.7136 340° North 426 490 38,000  Level Salt Lake Center
05:50PM 38.5750 -113.7628 341° North 426 490 38,000  Level Salt Lake Center
05:51PM 38.6858 -113.8128 341° North 426 490 38,000  Level Salt Lake Center
05:52PM 38.7972 -113.8553 343° North 421 484 38,000  Level Salt Lake Center
05:53PM 38.9083 -113.8956 344° North 418 481 38,000  Level Salt Lake Center
05:54PM 39.0192 -113.9347 345° North 417 480 38,000  Level Salt Lake Center
05:55PM 39.1292 -113.9750 344° North 416 479 38,000  Level Salt Lake Center
05:56PM 39.2608 -114.0233 344° North 414 476 38,000  Level Salt Lake Center
05:57PM 39.3717 -114.0619 345° North 414 476 38,000  Level Salt Lake Center
05:58PM 39.4806 -114.1044 343° North 413 475 38,000  Level Salt Lake Center
05:59PM 39.5911 -114.1436 345° North 413 475 38,000  Level Salt Lake Center
06:00PM 39.7003 -114.1858 343° North 413 475 38,000  Level Salt Lake Center
06:01PM 39.8133 -114.2247 345° North 414 476 38,000  Level Salt Lake Center
06:02PM 39.9211 -114.2653 344° North 407 468 38,000  Level Salt Lake Center
06:03PM 40.0294 -114.3050 344° North 405 466 38,000  Level Salt Lake Center
06:04PM 40.1378 -114.3461 344° North 404 465 38,000  Level Salt Lake Center
06:05PM 40.2464 -114.3864 344° North 405 466 38,000  Level Salt Lake Center
06:06PM 40.3758 -114.4350 344° North 404 465 38,000  Level Salt Lake Center
06:07PM 40.4844 -114.4767 344° North 404 465 38,000  Level Salt Lake Center
06:08PM 40.5933 -114.5175 344° North 404 465 38,000  Level Salt Lake Center
06:09PM 40.7019 -114.5592 344° North 405 466 38,000  Level Salt Lake Center
06:10PM 40.8197 -114.6042 344° North 407 468 38,000  Level Salt Lake Center
06:11PM 40.9219 -114.6442 344° North 407 468 38,000  Level Salt Lake Center
06:12PM 41.0244 -114.6833 344° North 405 466 38,000  Level Salt Lake Center
06:13PM 41.1317 -114.7250 344° North 404 465 38,000  Level Salt Lake Center
06:14PM 41.2383 -114.7658 344° North 402 463 38,000  Level Salt Lake Center
06:15PM 41.3469 -114.8075 344° North 402 463 38,000  Level Salt Lake Center
06:16PM 41.4692 -114.8550 344° North 402 463 38,000  Level Salt Lake Center
06:17PM 41.5694 -114.8947 343° North 399 459 38,000  Level Salt Lake Center
06:18PM 41.6883 -114.9414 344° North 397 457 38,000  Level Salt Lake Center
06:19PM 41.7892 -114.9814 344° North 396 456 38,000  Level Salt Lake Center
06:20PM 41.8933 -115.0242 343° North 406 467 38,000  Level Salt Lake Center
06:21PM 42.0111 -115.0697 344° North 399 459 38,000  Level Salt Lake Center
06:22PM 42.1033 -115.1061 344° North 392 451 38,000  Level Salt Lake Center
06:23PM 42.2078 -115.1481 343° North 393 452 38,000  Level Salt Lake Center
06:24PM 42.3342 -115.2011 343° North 395 455 38,000  Level Salt Lake Center
06:25PM 42.4408 -115.2422 344° North 397 457 38,000  Level Salt Lake Center
06:26PM 42.5469 -115.2861 343° North 398 458 38,000  Level Salt Lake Center
06:27PM 42.6528 -115.3289 343° North 398 458 38,000  Level Salt Lake Center
06:28PM 42.7583 -115.3719 343° North 396 456 38,000  Level Salt Lake Center
06:29PM 42.8642 -115.4142 344° North 396 456 38,000  Level Salt Lake Center
06:30PM 42.9694 -115.4575 343° North 395 455 38,000  Level Salt Lake Center
06:31PM 43.0733 -115.5028 342° North 394 453 38,000  Level Salt Lake Center
06:32PM 43.1769 -115.5439 344° North 391 450 38,000  Level Salt Lake Center
06:33PM 43.2800 -115.5886 342° North 391 450 38,000  Level Salt Lake Center
06:34PM 43.3836 -115.6297 344° North 389 448 38,000  Level Salt Lake Center
06:35PM 43.5064 -115.6808 343° North 388 447 38,000  Level Salt Lake Center
06:36PM 43.6097 -115.7225 344° North 388 447 38,000  Level Salt Lake Center
06:38PM 43.7119 -115.7672 342° North 387 445 38,000  Level Salt Lake Center
06:39PM 43.8142 -115.8106 343° North 386 444 38,000  Level Salt Lake Center
06:40PM 43.9164 -115.8533 343° North 386 444 38,000  Level Salt Lake Center
06:41PM 44.0181 -115.8964 343° North 385 443 38,000  Level Salt Lake Center
06:42PM 44.1189 -115.9392 343° North 382 440 38,000  Level Salt Lake Center
06:43PM 44.2192 -115.9814 343° North 380 437 38,000  Level Salt Lake Center
06:44PM 44.3197 -116.0250 343° North 380 437 38,000  Level Salt Lake Center
06:45PM 44.4325 -116.0747 343° North 380 437 38,000  Level Salt Lake Center
06:46PM 44.5294 -116.1164 343° North 373 429 38,000  Level Salt Lake Center
06:47PM 44.6489 -116.1681 343° North 374 430 38,000  Level Seattle Center
06:48PM 44.7486 -116.2114 343° North 374 430 38,000  Level Seattle Center
06:49PM 44.8697 -116.2642 343° North 378 435 38,000  Level Seattle Center
06:50PM 44.9714 -116.3103 342° North 380 437 38,000  Level Seattle Center
06:51PM 45.0750 -116.3550 343° North 385 443 38,000  Level Seattle Center
06:52PM 45.1789 -116.4017 342° North 389 448 38,000  Level Seattle Center
06:53PM 45.2822 -116.4486 342° North 388 447 38,000  Level Seattle Center
06:54PM 45.3861 -116.4939 343° North 389 448 38,000  Level Seattle Center
06:55PM 45.4886 -116.5392 343° North 387 445 38,000  Level Seattle Center
06:56PM 45.5853 -116.5833 342° North 367 422 38,000  Level Seattle Center
06:57PM 45.6889 -116.6306 342° North 379 436 38,000  Level Seattle Center
06:58PM 45.7911 -116.6764 343° North 383 441 38,000  Level Seattle Center
06:59PM 45.8950 -116.7231 343° North 385 443 38,000 -50 Level Seattle Center
07:00PM 45.9972 -116.7672 343° North 385 443 37,900 -595 Descending Seattle Center
07:01PM 46.0975 -116.8128 343° North 379 436 36,800 -1,033 Descending Seattle Center
07:02PM 46.1919 -116.8572 342° North 360 414 35,800 -1,721 Descending Seattle Center
07:03PM 46.2858 -116.8997 343° North 357 411 33,300 -2,876 Descending Seattle Center
07:04PM 46.3794 -116.9419 343° North 353 406 30,000 -3,372 Descending Seattle Center
07:05PM 46.4811 -116.9897 342° North 377 434 26,500 -2,951 Descending Seattle Center
07:06PM 46.5853 -117.0392 342° North 391 450 24,000 -2,281 Descending Seattle Center
07:07PM 46.6889 -117.0861 343° North 391 450 21,900 -2,628 Descending Seattle Center
07:08PM 46.7956 -117.1406 341° North 401 461 18,700 -2,951 Descending Seattle Center
07:09PM 46.8981 -117.1897 342° North 392 451 15,900 -2,951 Descending Seattle Center
07:10PM 47.0167 -117.2394 344° North 372 428 12,700 -2,083 Descending Seattle Center
07:11PM 47.1156 -117.2589 352° North 363 418 11,700 -1,041 Descending Seattle Center
07:12PM 47.2128 -117.2808 351° North 354 407 10,600 -836 Descending Seattle Center
07:13PM 47.2978 -117.3022 350° North 300 345 10,000 -992 Descending Seattle Center
07:14PM 47.3728 -117.3192 351° North 278 320 8,600 -1,388 Descending Seattle Center
07:15PM 47.4472 -117.3364 351° North 276 318 7,200 -934 Descending Seattle Center
07:16PM 47.5167 -117.3553 350° North 257 296 6,700 -738 Descending Seattle Center
07:17PM 47.5825 -117.3900 340° North 255 293 5,700 -992 Descending Seattle Center
07:18PM 47.6372 -117.4253 337° Northwest 196 226 4,700 -1,240 Descending Seattle Center
07:19PM 47.6606 -117.4719 307° West 147 169 3,200 -1,082 Descending Seattle Center
07:20PM 47.6358 -117.5119 227° Southwest 134 154 2,500 -446 Descending Seattle Center
07:21PM 47.6225 -117.5311 224° Southwest 95 109 2,300 -200 Descending Seattle Center
07:23PM 47.6167 -117.5333 341° North  Level FlightAware Approximate